createdAt,value
2019-03-23T00:03:38.555Z,25.57
2019-03-23T00:08:42.783Z,27.03
2019-03-23T00:13:47.015Z,27.53
2019-03-23T00:18:51.746Z,26.67
2019-03-23T00:23:55.981Z,29.07
2019-03-23T00:29:00.230Z,28.17
2019-03-23T00:34:04.466Z,26.10
2019-03-23T00:39:09.000Z,26.43
2019-03-23T00:44:13.644Z,27.77
2019-03-23T00:49:17.900Z,26.90
2019-03-23T00:54:22.137Z,27.00
2019-03-23T00:59:26.691Z,26.47
2019-03-23T01:04:30.929Z,26.13
2019-03-23T01:09:35.165Z,24.90
2019-03-23T01:14:40.414Z,26.67
2019-03-23T01:19:44.716Z,26.20
2019-03-23T01:24:49.040Z,27.47
2019-03-23T01:29:53.850Z,28.13
2019-03-23T01:34:58.083Z,27.90
2019-03-23T01:40:02.296Z,27.13
2019-03-23T01:45:07.580Z,25.57
2019-03-23T01:50:12.242Z,26.77
2019-03-23T01:55:16.461Z,25.57
2019-03-23T02:00:20.958Z,26.80
2019-03-23T02:05:25.581Z,26.73
2019-03-23T02:10:29.801Z,27.23
2019-03-23T02:15:34.316Z,26.90
2019-03-23T02:20:38.536Z,27.13
2019-03-23T02:25:49.196Z,27.47
2019-03-23T02:30:53.409Z,28.63
2019-03-23T02:35:57.875Z,28.03
2019-03-23T02:41:02.110Z,28.47
2019-03-23T02:46:06.340Z,27.77
2019-03-23T02:51:10.890Z,27.90
2019-03-23T02:56:15.321Z,28.27
2019-03-23T03:01:19.540Z,26.63
2019-03-23T03:06:24.091Z,27.90
2019-03-23T03:11:28.335Z,26.30
2019-03-23T03:16:32.562Z,26.63
2019-03-23T03:21:36.794Z,28.53
2019-03-23T03:26:41.012Z,28.07
2019-03-23T03:31:45.226Z,27.43
2019-03-23T03:36:49.451Z,28.57
2019-03-23T03:41:54.074Z,26.97
2019-03-23T03:46:58.617Z,27.73
2019-03-23T03:52:02.832Z,25.77
2019-03-23T03:57:07.583Z,27.63
2019-03-23T04:02:11.797Z,27.10
2019-03-23T04:07:16.026Z,26.83
2019-03-23T04:12:20.601Z,26.70
2019-03-23T04:17:24.859Z,25.77
2019-03-23T04:22:29.587Z,25.70
2019-03-23T04:27:33.886Z,25.53
2019-03-23T04:32:38.079Z,25.07
2019-03-23T04:37:42.298Z,25.97
2019-03-23T04:42:46.524Z,26.87
2019-03-23T04:47:50.725Z,27.20
2019-03-23T04:53:14.172Z,26.90
2019-03-23T04:58:18.729Z,24.83
2019-03-23T05:03:23.433Z,25.77
2019-03-23T05:08:33.331Z,26.17
2019-03-23T05:13:33.785Z,27.47
2019-03-23T05:18:38.314Z,27.70
2019-03-23T05:23:42.840Z,27.37
2019-03-23T05:28:47.057Z,25.57
2019-03-23T05:33:51.281Z,26.67
2019-03-23T05:38:56.269Z,27.03
2019-03-23T05:44:00.712Z,25.83
2019-03-23T05:49:05.250Z,25.67
2019-03-23T05:54:09.449Z,24.87
2019-03-23T05:59:13.680Z,26.70
2019-03-23T06:04:18.147Z,27.33
2019-03-23T06:09:22.362Z,25.63
2019-03-23T06:14:26.939Z,27.03
2019-03-23T06:19:31.525Z,26.83
2019-03-23T06:24:35.790Z,26.10
2019-03-23T06:29:40.058Z,26.27
2019-03-23T06:34:44.262Z,27.43
2019-03-23T06:39:48.737Z,25.67
2019-03-23T06:44:53.019Z,27.63
2019-03-23T06:49:57.270Z,27.30
2019-03-23T06:55:01.497Z,26.70
2019-03-23T07:00:08.126Z,26.23
2019-03-23T07:05:13.184Z,26.47
2019-03-23T07:10:17.740Z,25.60
2019-03-23T07:15:21.960Z,28.73
2019-03-23T07:20:26.624Z,27.70
2019-03-23T07:25:30.874Z,27.83
2019-03-23T07:30:35.782Z,27.33
2019-03-23T07:35:39.967Z,25.43
2019-03-23T07:40:44.190Z,27.93
2019-03-23T07:45:48.406Z,27.43
2019-03-23T07:50:52.657Z,26.90
2019-03-23T07:55:56.928Z,27.07
2019-03-23T08:01:01.710Z,26.73
2019-03-23T08:06:05.972Z,25.10
2019-03-23T08:11:10.194Z,24.90
2019-03-23T08:16:14.417Z,22.63
2019-03-23T08:21:18.711Z,21.30
2019-03-23T08:26:22.983Z,21.37
2019-03-23T08:31:27.209Z,20.03
2019-03-23T08:36:31.422Z,20.10
2019-03-23T08:41:35.693Z,18.73
2019-03-23T08:46:40.267Z,17.37
2019-03-23T08:51:44.893Z,15.60
2019-03-23T08:56:49.203Z,15.25
2019-03-23T09:01:53.429Z,13.72
2019-03-23T09:06:57.645Z,12.47
2019-03-23T09:12:01.850Z,11.95
2019-03-23T09:17:06.142Z,12.07
2019-03-23T09:22:10.365Z,11.20
2019-03-23T09:27:15.197Z,10.23
2019-03-23T09:32:19.749Z,10.20
2019-03-23T09:37:24.237Z,9.75
2019-03-23T09:42:28.474Z,8.68
2019-03-23T09:47:32.699Z,8.28
2019-03-23T09:52:36.974Z,8.45
2019-03-23T09:57:41.225Z,7.78
2019-03-23T10:02:45.513Z,7.45
2019-03-23T10:07:49.718Z,7.30
2019-03-23T10:12:53.939Z,6.67
2019-03-23T10:17:58.554Z,5.95
2019-03-23T10:23:02.892Z,4.95
2019-03-23T10:28:07.405Z,5.20
2019-03-23T10:33:11.976Z,4.90
2019-03-23T10:38:17.002Z,5.37
2019-03-23T10:43:21.578Z,4.95
2019-03-23T10:48:25.781Z,5.05
2019-03-23T10:53:30.327Z,5.12
2019-03-23T10:58:34.629Z,5.87
2019-03-23T11:03:38.864Z,5.62
2019-03-23T11:08:43.076Z,5.37
2019-03-23T11:13:47.330Z,6.10
2019-03-23T11:18:51.858Z,6.05
2019-03-23T11:23:56.085Z,6.22
2019-03-23T11:29:00.440Z,6.90
2019-03-23T11:34:05.050Z,6.33
2019-03-23T11:39:09.570Z,7.35
2019-03-23T11:44:14.145Z,7.65
2019-03-23T11:49:18.759Z,7.50
2019-03-23T11:54:22.979Z,7.75
2019-03-23T11:59:27.263Z,7.53
2019-03-23T12:04:31.769Z,7.33
2019-03-23T12:09:36.304Z,7.55
2019-03-23T12:14:40.529Z,6.58
2019-03-23T12:19:44.813Z,7.80
2019-03-23T12:24:49.007Z,8.83
2019-03-23T12:29:53.229Z,7.95
2019-03-23T12:34:57.800Z,9.25
2019-03-23T12:40:02.410Z,9.93
2019-03-23T12:45:07.359Z,9.60
2019-03-23T12:50:11.906Z,8.88
2019-03-23T12:55:16.137Z,9.40
2019-03-23T13:00:20.518Z,8.55
2019-03-23T13:05:25.053Z,7.95
2019-03-23T13:10:29.305Z,7.97
2019-03-23T13:15:33.845Z,8.10
2019-03-23T13:20:38.113Z,7.97
2019-03-23T13:25:42.393Z,6.85
2019-03-23T13:30:46.669Z,7.28
2019-03-23T13:35:50.878Z,7.12
2019-03-23T13:40:55.112Z,7.97
2019-03-23T13:46:03.045Z,8.55
2019-03-23T13:51:07.394Z,8.83
2019-03-23T13:56:11.615Z,9.90
2019-03-23T14:01:16.101Z,9.70
2019-03-23T14:06:20.401Z,9.05
2019-03-23T14:11:24.657Z,8.53
2019-03-23T14:16:29.183Z,9.35
2019-03-23T14:21:33.409Z,9.73
2019-03-23T14:26:37.957Z,8.75
2019-03-23T14:31:42.265Z,10.38
2019-03-23T14:36:46.521Z,10.48
2019-03-23T14:41:51.208Z,10.40
2019-03-23T14:46:58.307Z,9.98
2019-03-23T14:52:02.585Z,10.40
2019-03-23T14:57:06.818Z,11.28
2019-03-23T15:02:11.105Z,10.65
2019-03-23T15:07:15.850Z,11.45
2019-03-23T15:12:21.361Z,12.33
2019-03-23T15:17:25.636Z,12.40
2019-03-23T15:22:29.885Z,11.03
2019-03-23T15:27:35.127Z,12.45
2019-03-23T15:32:39.657Z,11.53
2019-03-23T15:37:44.327Z,11.15
2019-03-23T15:42:48.614Z,11.30
2019-03-23T15:47:53.091Z,11.68
2019-03-23T15:52:57.641Z,11.57
2019-03-23T15:58:01.955Z,10.05
2019-03-23T16:03:06.527Z,12.60
2019-03-23T16:08:11.057Z,13.62
2019-03-23T16:13:15.311Z,14.43
2019-03-23T16:18:19.837Z,14.55
2019-03-23T16:23:24.070Z,13.13
2019-03-23T16:28:28.309Z,13.88
2019-03-23T16:33:32.573Z,14.80
2019-03-23T16:38:36.822Z,16.20
2019-03-23T16:43:42.348Z,18.15
2019-03-23T16:48:46.575Z,18.87
2019-03-23T16:53:51.113Z,20.17
2019-03-23T16:58:55.634Z,20.25
2019-03-23T17:04:00.005Z,24.07
2019-03-23T17:09:05.022Z,27.03
2019-03-23T17:14:09.243Z,30.97
2019-03-23T17:19:13.441Z,32.73
2019-03-23T17:24:17.774Z,36.27
2019-03-23T17:29:22.405Z,35.40
2019-03-23T17:34:26.630Z,38.30
2019-03-23T17:39:30.933Z,37.73
2019-03-23T17:44:35.280Z,37.50
2019-03-23T17:49:39.541Z,39.57
2019-03-23T17:54:43.835Z,41.23
2019-03-23T17:59:48.213Z,38.77
2019-03-23T18:04:52.465Z,40.13
2019-03-23T18:09:56.670Z,39.87
2019-03-23T18:15:01.459Z,38.03
2019-03-23T18:20:06.558Z,36.63
2019-03-23T18:25:12.445Z,38.40
2019-03-23T18:30:33.642Z,35.53
2019-03-23T18:35:38.016Z,35.60
2019-03-23T18:40:42.309Z,34.50
2019-03-23T18:45:46.615Z,32.23
2019-03-23T18:50:51.718Z,31.57
2019-03-23T18:55:55.974Z,31.07
2019-03-23T19:01:00.791Z,29.23
2019-03-23T19:06:05.119Z,27.57
2019-03-23T19:11:09.658Z,29.80
2019-03-23T19:16:14.010Z,26.97
2019-03-23T19:21:18.225Z,26.70
2019-03-23T19:26:23.054Z,25.63
2019-03-23T19:31:27.342Z,27.20
2019-03-23T19:36:31.598Z,29.20
2019-03-23T19:41:35.837Z,28.53
2019-03-23T19:46:40.080Z,28.63
2019-03-23T19:51:44.701Z,27.70
2019-03-23T19:56:53.894Z,23.37
2019-03-23T20:01:58.167Z,26.10
2019-03-23T20:07:02.391Z,27.23
2019-03-23T20:12:06.678Z,27.20
2019-03-23T20:17:11.664Z,26.17
2019-03-23T20:22:15.868Z,27.03
2019-03-23T20:27:20.089Z,27.20
2019-03-23T20:32:24.326Z,27.77
2019-03-23T20:37:28.590Z,30.77
2019-03-23T20:42:32.795Z,28.33
2019-03-23T20:47:39.237Z,30.13
2019-03-23T20:52:46.229Z,30.20
2019-03-23T20:57:50.441Z,32.23
2019-03-23T21:02:54.838Z,31.53
2019-03-23T21:07:59.338Z,31.33
2019-03-23T21:13:03.973Z,31.80
2019-03-23T21:18:08.174Z,30.33
2019-03-23T21:23:12.378Z,30.80
2019-03-23T21:28:16.594Z,30.47
2019-03-23T21:33:20.812Z,30.17
2019-03-23T21:38:25.459Z,31.47
2019-03-23T21:43:30.004Z,30.73
2019-03-23T21:48:34.259Z,31.40
2019-03-23T21:53:38.874Z,31.00
2019-03-23T21:58:43.425Z,32.53
2019-03-23T22:03:47.650Z,31.90
2019-03-23T22:08:51.865Z,31.90
2019-03-23T22:13:56.087Z,31.90
2019-03-23T22:19:01.007Z,31.83
2019-03-23T22:24:05.259Z,31.30
2019-03-23T22:29:09.479Z,32.37
2019-03-23T22:34:13.681Z,31.70
2019-03-23T22:39:18.140Z,32.33
2019-03-23T22:44:22.363Z,31.60
2019-03-23T22:49:26.573Z,32.40
2019-03-23T22:54:30.794Z,32.37
2019-03-23T22:59:35.598Z,32.40
2019-03-23T23:04:40.181Z,32.90
2019-03-23T23:09:44.398Z,32.03
2019-03-23T23:14:48.625Z,33.43
2019-03-23T23:19:52.857Z,33.20
2019-03-23T23:24:57.383Z,31.73
2019-03-23T23:30:01.644Z,30.97
2019-03-23T23:35:06.464Z,32.80
2019-03-23T23:40:11.105Z,33.93
2019-03-23T23:45:16.052Z,33.27
2019-03-23T23:50:20.341Z,31.23
2019-03-23T23:55:24.560Z,30.83
